Etusivu
METAR-TAF:

METAR-TAF

Lentoasemat :

Alamogordo, New Mexico, Yhdysvallat

Leveyspiiri: 32-50N, Pituuspiiri: 105-59W, korkeus merenpinnasta: 1279 m

Tämänhetkinen sää

Tämä raportti tehtiin 17 minuuttia sitten, kello 13.15 UTC
Tuuli 16 kn etelästä
Lämpötila 24°C
Kosteus 54%
Ilmanpaine 1019 hPa
Näkyvyys: 16.1 km
selkeää

METAR: KALM 181315Z AUTO 17016KT 10SM CLR 24/14 A3008 RMK AO2

Aika: 07:32 (13:32 UTC)


TAF: puuttuu

Säähavainnot ja -ennusteet yli 4000 lentoasemalta (METAR- ja TAF-raportit).

Käytössä olevat sääasemat on merkitty karttaan keltaisilla ja punaisilla pisteillä.

Aseta hiiri pisteen päälle nähdäksesi sääaseman nimen.

Klikkaa sitten nähdäksesi säähavainnot ja -ennusteet.

Kartan vaihtaminen: klikkaa mustalla rastilla varustettuja vihreitä pisteitä, niin voit zoomata sisään; viivalla varustettua vihreää pistettä, niin voit zoomata ulos tai vihreitä nuolia, niin pääset viereisille kartoille.


METAR-TAF: